RYR8592 LIPE-LICR
Flight info
| Callsign | RYR8592 |
|---|---|
| Flight time | 1h 21m |
| Altitude | 37000 |
| Route | PELEG DCT BAGNO DCT TEA DCT SOR Q58 FOSQA |
| Aircraft | B738/M-SDE3FGILRWY/SB1 |
Departure
| Time | 2026-04-25 14:34 |
|---|---|
| Airport | Bologna Guglielmo Marconi Airport (LIPE) |
Arrival
| Time | 2026-04-25 15:55 |
|---|---|
| Airport | Reggio Calabria Airport (LICR) |
| Time | Latitude | Longitude | Altitude | Speed | Heading |
|---|---|---|---|---|---|
| 2026-04-25 14:00 | 44.53060 | 11.29381 | 129 ft | 0 kts | 208° |
| 2026-04-25 14:25 | 44.53064 | 11.29385 | 129 ft | 3 kts | 206° |
| 2026-04-25 14:25 | 44.53072 | 11.29389 | 129 ft | 3 kts | 204° |
| 2026-04-25 14:26 | 44.53096 | 11.29413 | 125 ft | 3 kts | 273° |
| 2026-04-25 14:26 | 44.53090 | 11.29439 | 125 ft | 2 kts | 296° |
| 2026-04-25 14:26 | 44.53098 | 11.29418 | 127 ft | 1 kts | 297° |
| 2026-04-25 14:29 | 44.53099 | 11.29415 | 125 ft | 2 kts | 297° |
| 2026-04-25 14:29 | 44.53117 | 11.29366 | 127 ft | 10 kts | 296° |
| 2026-04-25 14:29 | 44.53154 | 11.29260 | 126 ft | 13 kts | 296° |
| 2026-04-25 14:30 | 44.53210 | 11.29206 | 130 ft | 10 kts | 349° |
| 2026-04-25 14:30 | 44.53316 | 11.28952 | 127 ft | 23 kts | 297° |
| 2026-04-25 14:30 | 44.53399 | 11.28721 | 125 ft | 30 kts | 297° |
| 2026-04-25 14:31 | 44.53493 | 11.28460 | 128 ft | 29 kts | 297° |
| 2026-04-25 14:31 | 44.53582 | 11.28214 | 126 ft | 28 kts | 296° |
| 2026-04-25 14:31 | 44.53662 | 11.27990 | 128 ft | 24 kts | 296° |
| 2026-04-25 14:31 | 44.53736 | 11.27784 | 128 ft | 23 kts | 297° |
| 2026-04-25 14:32 | 44.53798 | 11.27620 | 126 ft | 14 kts | 307° |
| 2026-04-25 14:32 | 44.53852 | 11.27573 | 128 ft | 14 kts | 344° |
| 2026-04-25 14:32 | 44.53935 | 11.27613 | 127 ft | 13 kts | 49° |
| 2026-04-25 14:32 | 44.53963 | 11.27696 | 126 ft | 8 kts | 99° |
| 2026-04-25 14:33 | 44.53911 | 11.27846 | 126 ft | 42 kts | 116° |
| 2026-04-25 14:33 | 44.53669 | 11.28518 | 124 ft | 110 kts | 116° |
| 2026-04-25 14:33 | 44.53234 | 11.29726 | 138 ft | 164 kts | 115° |
| 2026-04-25 14:33 | 44.52686 | 11.31209 | 624 ft | 171 kts | 114° |
| 2026-04-25 14:34 | 44.52506 | 11.32800 | 1272 ft | 171 kts | 70° |
| 2026-04-25 14:34 | 44.53297 | 11.33992 | 1902 ft | 174 kts | 21° |
| 2026-04-25 14:34 | 44.54439 | 11.34482 | 2641 ft | 169 kts | 18° |
| 2026-04-25 14:34 | 44.55549 | 11.35057 | 3212 ft | 176 kts | 22° |
| 2026-04-25 14:35 | 44.56755 | 11.35795 | 3482 ft | 202 kts | 25° |
| 2026-04-25 14:35 | 44.58091 | 11.36708 | 3779 ft | 220 kts | 27° |
| 2026-04-25 14:35 | 44.59474 | 11.37735 | 4260 ft | 227 kts | 28° |
| 2026-04-25 14:35 | 44.60868 | 11.38849 | 4868 ft | 234 kts | 35° |
| 2026-04-25 14:36 | 44.61905 | 11.40717 | 5088 ft | 258 kts | 73° |
| 2026-04-25 14:36 | 44.61954 | 11.43274 | 5367 ft | 276 kts | 109° |
| 2026-04-25 14:36 | 44.60944 | 11.45555 | 6055 ft | 277 kts | 136° |
| 2026-04-25 14:36 | 44.59408 | 11.47222 | 6756 ft | 281 kts | 151° |
| 2026-04-25 14:37 | 44.57668 | 11.48508 | 7457 ft | 284 kts | 155° |
| 2026-04-25 14:37 | 44.55882 | 11.49718 | 8238 ft | 287 kts | 156° |
| 2026-04-25 14:37 | 44.54069 | 11.50947 | 8981 ft | 291 kts | 155° |
| 2026-04-25 14:37 | 44.52264 | 11.52195 | 9760 ft | 295 kts | 154° |
| 2026-04-25 14:38 | 44.50414 | 11.53497 | 10400 ft | 303 kts | 154° |
| 2026-04-25 14:38 | 44.48450 | 11.54896 | 10583 ft | 328 kts | 154° |
| 2026-04-25 14:38 | 44.46347 | 11.56409 | 10849 ft | 348 kts | 154° |
| 2026-04-25 14:38 | 44.44166 | 11.57989 | 11435 ft | 356 kts | 154° |
| 2026-04-25 14:39 | 44.41950 | 11.59600 | 12186 ft | 359 kts | 154° |
| 2026-04-25 14:39 | 44.39728 | 11.61218 | 12933 ft | 362 kts | 154° |
| 2026-04-25 14:39 | 44.37507 | 11.62835 | 13694 ft | 366 kts | 154° |
| 2026-04-25 14:39 | 44.35231 | 11.64491 | 14395 ft | 371 kts | 154° |
| 2026-04-25 14:40 | 44.32931 | 11.66164 | 15145 ft | 374 kts | 154° |
| 2026-04-25 14:40 | 44.30608 | 11.67852 | 15897 ft | 377 kts | 155° |
| 2026-04-25 14:40 | 44.28255 | 11.69557 | 16537 ft | 383 kts | 155° |
| 2026-04-25 14:40 | 44.25879 | 11.71279 | 17292 ft | 385 kts | 155° |
| 2026-04-25 14:41 | 44.23463 | 11.72921 | 18025 ft | 387 kts | 161° |
| 2026-04-25 14:41 | 44.20889 | 11.74003 | 18642 ft | 387 kts | 172° |
| 2026-04-25 14:41 | 44.18220 | 11.74566 | 19263 ft | 389 kts | 175° |
| 2026-04-25 14:41 | 44.15521 | 11.75064 | 19878 ft | 392 kts | 175° |
| 2026-04-25 14:42 | 44.12836 | 11.75554 | 20471 ft | 395 kts | 175° |
| 2026-04-25 14:42 | 44.10987 | 11.75900 | 20849 ft | 398 kts | 175° |
| 2026-04-25 14:42 | 44.07312 | 11.76608 | 21596 ft | 403 kts | 175° |
| 2026-04-25 14:42 | 44.04529 | 11.77155 | 22216 ft | 406 kts | 175° |
| 2026-04-25 14:43 | 44.01723 | 11.77711 | 22772 ft | 409 kts | 175° |
| 2026-04-25 14:43 | 43.98887 | 11.78274 | 23318 ft | 412 kts | 175° |
| 2026-04-25 14:43 | 43.96066 | 11.78834 | 23797 ft | 417 kts | 175° |
| 2026-04-25 14:43 | 43.93177 | 11.79406 | 24234 ft | 420 kts | 175° |
| 2026-04-25 14:44 | 43.90291 | 11.80166 | 24720 ft | 426 kts | 167° |
| 2026-04-25 14:44 | 43.87494 | 11.81605 | 25194 ft | 432 kts | 158° |
| 2026-04-25 14:44 | 43.84860 | 11.83670 | 25636 ft | 437 kts | 151° |
| 2026-04-25 14:44 | 43.82280 | 11.85938 | 26066 ft | 441 kts | 150° |
| 2026-04-25 14:45 | 43.79721 | 11.88234 | 26479 ft | 444 kts | 149° |
| 2026-04-25 14:45 | 43.77123 | 11.90568 | 26888 ft | 446 kts | 149° |
| 2026-04-25 14:45 | 43.74504 | 11.92907 | 27377 ft | 447 kts | 149° |
| 2026-04-25 14:45 | 43.71878 | 11.95232 | 27797 ft | 450 kts | 150° |
| 2026-04-25 14:46 | 43.69221 | 11.97566 | 28088 ft | 454 kts | 150° |
| 2026-04-25 14:46 | 43.66569 | 11.99884 | 28442 ft | 458 kts | 150° |
| 2026-04-25 14:46 | 43.63861 | 12.02244 | 28842 ft | 460 kts | 150° |
| 2026-04-25 14:46 | 43.61143 | 12.04607 | 29241 ft | 461 kts | 150° |
| 2026-04-25 14:47 | 43.58426 | 12.06966 | 29683 ft | 462 kts | 150° |
| 2026-04-25 14:47 | 43.56611 | 12.08541 | 29948 ft | 463 kts | 150° |
| 2026-04-25 14:47 | 43.52992 | 12.11679 | 30397 ft | 465 kts | 149° |
| 2026-04-25 14:47 | 43.50249 | 12.14055 | 30766 ft | 465 kts | 149° |
| 2026-04-25 14:48 | 43.47511 | 12.16422 | 31142 ft | 464 kts | 149° |
| 2026-04-25 14:48 | 43.44780 | 12.18782 | 31589 ft | 462 kts | 149° |
| 2026-04-25 14:48 | 43.42070 | 12.21122 | 32076 ft | 458 kts | 150° |
| 2026-04-25 14:48 | 43.39358 | 12.23456 | 32450 ft | 458 kts | 150° |
| 2026-04-25 14:49 | 43.36690 | 12.25755 | 32800 ft | 458 kts | 149° |
| 2026-04-25 14:49 | 43.33993 | 12.28071 | 33293 ft | 454 kts | 150° |
| 2026-04-25 14:49 | 43.31311 | 12.30376 | 33769 ft | 451 kts | 150° |
| 2026-04-25 14:49 | 43.28647 | 12.32669 | 34145 ft | 450 kts | 149° |
| 2026-04-25 14:50 | 43.25992 | 12.34949 | 34422 ft | 450 kts | 150° |
| 2026-04-25 14:50 | 43.23336 | 12.37222 | 34728 ft | 450 kts | 149° |
| 2026-04-25 14:50 | 43.20716 | 12.39466 | 35050 ft | 449 kts | 149° |
| 2026-04-25 14:50 | 43.18056 | 12.41739 | 35352 ft | 448 kts | 149° |
| 2026-04-25 14:51 | 43.15409 | 12.43999 | 35681 ft | 447 kts | 149° |
| 2026-04-25 14:51 | 43.12773 | 12.46248 | 36017 ft | 445 kts | 149° |
| 2026-04-25 14:51 | 43.10151 | 12.48482 | 36346 ft | 444 kts | 149° |
| 2026-04-25 14:51 | 43.07556 | 12.50691 | 36603 ft | 444 kts | 149° |
| 2026-04-25 14:52 | 43.04927 | 12.52927 | 36851 ft | 444 kts | 149° |
| 2026-04-25 14:52 | 43.02305 | 12.55154 | 37072 ft | 444 kts | 149° |
| 2026-04-25 14:52 | 42.97887 | 12.58901 | 37051 ft | 448 kts | 149° |
| 2026-04-25 14:53 | 42.91754 | 12.64097 | 37044 ft | 441 kts | 149° |
| 2026-04-25 14:53 | 42.86554 | 12.68490 | 37062 ft | 438 kts | 149° |
| 2026-04-25 14:54 | 42.81368 | 12.72863 | 37042 ft | 436 kts | 149° |
| 2026-04-25 14:54 | 42.76236 | 12.77183 | 37051 ft | 435 kts | 149° |
| 2026-04-25 14:55 | 42.71096 | 12.81499 | 37061 ft | 436 kts | 149° |
| 2026-04-25 14:55 | 42.65915 | 12.85841 | 37077 ft | 437 kts | 149° |
| 2026-04-25 14:56 | 42.60717 | 12.90190 | 37070 ft | 439 kts | 149° |
| 2026-04-25 14:56 | 42.55537 | 12.94515 | 37067 ft | 440 kts | 149° |
| 2026-04-25 14:57 | 42.50313 | 12.98867 | 37073 ft | 440 kts | 149° |
| 2026-04-25 14:57 | 42.45083 | 13.03217 | 37082 ft | 441 kts | 148° |
| 2026-04-25 14:58 | 42.39872 | 13.07542 | 37078 ft | 441 kts | 149° |
| 2026-04-25 14:58 | 42.34636 | 13.11880 | 37049 ft | 441 kts | 148° |
| 2026-04-25 14:59 | 42.29416 | 13.16194 | 37067 ft | 440 kts | 148° |
| 2026-04-25 14:59 | 42.24180 | 13.20515 | 37053 ft | 440 kts | 148° |
| 2026-04-25 15:00 | 42.18953 | 13.24819 | 37051 ft | 439 kts | 148° |
| 2026-04-25 15:00 | 42.13763 | 13.29085 | 37060 ft | 438 kts | 148° |
| 2026-04-25 15:01 | 42.08544 | 13.33365 | 37061 ft | 437 kts | 148° |
| 2026-04-25 15:01 | 42.03354 | 13.37614 | 37063 ft | 436 kts | 148° |
| 2026-04-25 15:02 | 41.98169 | 13.41851 | 37058 ft | 436 kts | 148° |
| 2026-04-25 15:02 | 41.93005 | 13.46062 | 37059 ft | 435 kts | 148° |
| 2026-04-25 15:03 | 41.87813 | 13.50288 | 37068 ft | 436 kts | 148° |
| 2026-04-25 15:03 | 41.82645 | 13.54486 | 37061 ft | 437 kts | 148° |
| 2026-04-25 15:04 | 41.77422 | 13.58721 | 37080 ft | 438 kts | 148° |
| 2026-04-25 15:04 | 41.72199 | 13.62949 | 37056 ft | 438 kts | 148° |
| 2026-04-25 15:05 | 41.66997 | 13.67150 | 37068 ft | 438 kts | 148° |
| 2026-04-25 15:06 | 41.59178 | 13.73450 | 37073 ft | 437 kts | 148° |
| 2026-04-25 15:06 | 41.53963 | 13.77643 | 37067 ft | 437 kts | 148° |
| 2026-04-25 15:07 | 41.48737 | 13.81837 | 37060 ft | 437 kts | 148° |
| 2026-04-25 15:07 | 41.43540 | 13.85999 | 37082 ft | 436 kts | 148° |
| 2026-04-25 15:08 | 41.38334 | 13.90161 | 37080 ft | 436 kts | 148° |
| 2026-04-25 15:08 | 41.33143 | 13.94304 | 37079 ft | 434 kts | 148° |
| 2026-04-25 15:09 | 41.27880 | 13.98153 | 37077 ft | 434 kts | 157° |
| 2026-04-25 15:09 | 41.19402 | 14.02440 | 37077 ft | 434 kts | 159° |
| 2026-04-25 15:10 | 41.13770 | 14.05264 | 37079 ft | 434 kts | 158° |
| 2026-04-25 15:11 | 41.05300 | 14.09586 | 37083 ft | 434 kts | 158° |
| 2026-04-25 15:11 | 40.99691 | 14.12458 | 37087 ft | 435 kts | 158° |
| 2026-04-25 15:12 | 40.91204 | 14.16791 | 37080 ft | 436 kts | 158° |
| 2026-04-25 15:12 | 40.87440 | 14.18708 | 37078 ft | 437 kts | 158° |
| 2026-04-25 15:13 | 40.77009 | 14.24009 | 37090 ft | 439 kts | 158° |
| 2026-04-25 15:14 | 40.71300 | 14.26903 | 37105 ft | 439 kts | 158° |
| 2026-04-25 15:14 | 40.65585 | 14.29795 | 37102 ft | 440 kts | 158° |
| 2026-04-25 15:15 | 40.59891 | 14.32671 | 37100 ft | 440 kts | 158° |
| 2026-04-25 15:15 | 40.54094 | 14.35347 | 37098 ft | 441 kts | 161° |
| 2026-04-25 15:16 | 40.48227 | 14.37715 | 37098 ft | 441 kts | 162° |
| 2026-04-25 15:16 | 40.39461 | 14.41236 | 37099 ft | 441 kts | 162° |
| 2026-04-25 15:17 | 40.30658 | 14.44828 | 37097 ft | 441 kts | 161° |
| 2026-04-25 15:18 | 40.24798 | 14.47224 | 37108 ft | 441 kts | 161° |
| 2026-04-25 15:18 | 40.16028 | 14.50803 | 37100 ft | 441 kts | 162° |
| 2026-04-25 15:19 | 40.12143 | 14.52386 | 37105 ft | 441 kts | 161° |
| 2026-04-25 15:19 | 40.04326 | 14.55561 | 37104 ft | 441 kts | 161° |
| 2026-04-25 15:20 | 39.99430 | 14.57546 | 37098 ft | 442 kts | 162° |
| 2026-04-25 15:20 | 39.96460 | 14.58749 | 36631 ft | 448 kts | 161° |
| 2026-04-25 15:20 | 39.93496 | 14.59948 | 36120 ft | 445 kts | 161° |
| 2026-04-25 15:21 | 39.90531 | 14.61147 | 35517 ft | 445 kts | 161° |
| 2026-04-25 15:21 | 39.87609 | 14.62328 | 34905 ft | 445 kts | 161° |
| 2026-04-25 15:21 | 39.84639 | 14.63526 | 34369 ft | 444 kts | 161° |
| 2026-04-25 15:21 | 39.81695 | 14.64712 | 33910 ft | 440 kts | 161° |
| 2026-04-25 15:22 | 39.78780 | 14.65886 | 33409 ft | 436 kts | 161° |
| 2026-04-25 15:22 | 39.75928 | 14.67033 | 32968 ft | 432 kts | 161° |
| 2026-04-25 15:22 | 39.73062 | 14.68185 | 32520 ft | 428 kts | 161° |
| 2026-04-25 15:22 | 39.70227 | 14.69323 | 32081 ft | 424 kts | 161° |
| 2026-04-25 15:23 | 39.67420 | 14.70450 | 31649 ft | 420 kts | 161° |
| 2026-04-25 15:23 | 39.64629 | 14.71570 | 31229 ft | 417 kts | 161° |
| 2026-04-25 15:23 | 39.61904 | 14.72662 | 30820 ft | 414 kts | 161° |
| 2026-04-25 15:23 | 39.59163 | 14.73759 | 30407 ft | 411 kts | 161° |
| 2026-04-25 15:24 | 39.56434 | 14.74851 | 29960 ft | 408 kts | 161° |
| 2026-04-25 15:24 | 39.53732 | 14.75932 | 29488 ft | 405 kts | 161° |
| 2026-04-25 15:24 | 39.51049 | 14.77003 | 29049 ft | 401 kts | 161° |
| 2026-04-25 15:24 | 39.49287 | 14.77707 | 28748 ft | 399 kts | 161° |
| 2026-04-25 15:25 | 39.45753 | 14.79116 | 28189 ft | 394 kts | 161° |
| 2026-04-25 15:25 | 39.43145 | 14.80155 | 27768 ft | 391 kts | 161° |
| 2026-04-25 15:25 | 39.40584 | 14.81175 | 27347 ft | 388 kts | 161° |
| 2026-04-25 15:25 | 39.38014 | 14.82197 | 26935 ft | 385 kts | 161° |
| 2026-04-25 15:26 | 39.35461 | 14.83212 | 26522 ft | 383 kts | 161° |
| 2026-04-25 15:26 | 39.32919 | 14.84222 | 26118 ft | 380 kts | 161° |
| 2026-04-25 15:26 | 39.30394 | 14.85225 | 25719 ft | 378 kts | 161° |
| 2026-04-25 15:26 | 39.27877 | 14.86224 | 25307 ft | 377 kts | 161° |
| 2026-04-25 15:27 | 39.25376 | 14.87215 | 24904 ft | 375 kts | 161° |
| 2026-04-25 15:27 | 39.22881 | 14.88203 | 24492 ft | 374 kts | 162° |
| 2026-04-25 15:27 | 39.17903 | 14.90174 | 23669 ft | 373 kts | 162° |
| 2026-04-25 15:28 | 39.15449 | 14.91143 | 23209 ft | 372 kts | 162° |
| 2026-04-25 15:28 | 39.12976 | 14.92119 | 22781 ft | 370 kts | 162° |
| 2026-04-25 15:28 | 39.10516 | 14.93090 | 22367 ft | 367 kts | 162° |
| 2026-04-25 15:28 | 39.08072 | 14.94054 | 21903 ft | 367 kts | 161° |
| 2026-04-25 15:29 | 39.05674 | 14.94999 | 21573 ft | 363 kts | 162° |
| 2026-04-25 15:29 | 39.03265 | 14.95947 | 21164 ft | 361 kts | 161° |
| 2026-04-25 15:29 | 39.00860 | 14.96893 | 20775 ft | 359 kts | 161° |
| 2026-04-25 15:29 | 38.98472 | 14.97832 | 20386 ft | 358 kts | 161° |
| 2026-04-25 15:30 | 38.96095 | 14.98766 | 19994 ft | 356 kts | 161° |
| 2026-04-25 15:30 | 38.93723 | 14.99697 | 19609 ft | 355 kts | 161° |
| 2026-04-25 15:30 | 38.91392 | 15.00612 | 19228 ft | 354 kts | 161° |
| 2026-04-25 15:30 | 38.89037 | 15.01536 | 18824 ft | 353 kts | 161° |
| 2026-04-25 15:31 | 38.86680 | 15.02460 | 18358 ft | 354 kts | 161° |
| 2026-04-25 15:31 | 38.84323 | 15.03383 | 17918 ft | 353 kts | 161° |
| 2026-04-25 15:31 | 38.81973 | 15.04303 | 17508 ft | 351 kts | 161° |
| 2026-04-25 15:31 | 38.79636 | 15.05217 | 17111 ft | 349 kts | 161° |
| 2026-04-25 15:32 | 38.77321 | 15.06122 | 16717 ft | 347 kts | 161° |
| 2026-04-25 15:32 | 38.75017 | 15.07021 | 16335 ft | 345 kts | 161° |
| 2026-04-25 15:32 | 38.72754 | 15.07904 | 15966 ft | 342 kts | 161° |
| 2026-04-25 15:33 | 38.68565 | 15.10613 | 15141 ft | 337 kts | 139° |
| 2026-04-25 15:33 | 38.66774 | 15.12536 | 14772 ft | 335 kts | 138° |
| 2026-04-25 15:33 | 38.65007 | 15.14475 | 14392 ft | 334 kts | 137° |
| 2026-04-25 15:33 | 38.63240 | 15.16411 | 14017 ft | 332 kts | 138° |
| 2026-04-25 15:34 | 38.61482 | 15.18324 | 13613 ft | 331 kts | 138° |
| 2026-04-25 15:34 | 38.59743 | 15.20203 | 13227 ft | 329 kts | 138° |
| 2026-04-25 15:34 | 38.57996 | 15.22084 | 12835 ft | 327 kts | 138° |
| 2026-04-25 15:34 | 38.56845 | 15.23320 | 12591 ft | 326 kts | 138° |
| 2026-04-25 15:35 | 38.52817 | 15.27636 | 11730 ft | 320 kts | 138° |
| 2026-04-25 15:35 | 38.51101 | 15.29459 | 11376 ft | 319 kts | 140° |
| 2026-04-25 15:35 | 38.49243 | 15.31010 | 11011 ft | 319 kts | 149° |
| 2026-04-25 15:36 | 38.45346 | 15.33576 | 10441 ft | 312 kts | 151° |
| 2026-04-25 15:36 | 38.43437 | 15.34815 | 10289 ft | 303 kts | 151° |
| 2026-04-25 15:36 | 38.41585 | 15.36037 | 10156 ft | 295 kts | 150° |
| 2026-04-25 15:37 | 38.39784 | 15.37241 | 9993 ft | 289 kts | 150° |
| 2026-04-25 15:37 | 38.38007 | 15.38440 | 9675 ft | 287 kts | 150° |
| 2026-04-25 15:37 | 38.36270 | 15.39617 | 9391 ft | 285 kts | 150° |
| 2026-04-25 15:37 | 38.34519 | 15.40805 | 9106 ft | 283 kts | 150° |
| 2026-04-25 15:38 | 38.32786 | 15.41983 | 8818 ft | 282 kts | 150° |
| 2026-04-25 15:38 | 38.31056 | 15.43156 | 8522 ft | 281 kts | 150° |
| 2026-04-25 15:38 | 38.29335 | 15.44323 | 8234 ft | 279 kts | 150° |
| 2026-04-25 15:38 | 38.27617 | 15.45482 | 7946 ft | 278 kts | 150° |
| 2026-04-25 15:39 | 38.25903 | 15.46627 | 7665 ft | 278 kts | 151° |
| 2026-04-25 15:39 | 38.24214 | 15.47753 | 7401 ft | 277 kts | 151° |
| 2026-04-25 15:39 | 38.22539 | 15.48868 | 7153 ft | 268 kts | 152° |
| 2026-04-25 15:39 | 38.20884 | 15.49973 | 6655 ft | 270 kts | 152° |
| 2026-04-25 15:40 | 38.19222 | 15.51081 | 6206 ft | 269 kts | 152° |
| 2026-04-25 15:40 | 38.18661 | 15.51454 | 6062 ft | 268 kts | 152° |
| 2026-04-25 15:40 | 38.15953 | 15.53256 | 5423 ft | 261 kts | 153° |
| 2026-04-25 15:40 | 38.14328 | 15.54222 | 5156 ft | 252 kts | 166° |
| 2026-04-25 15:41 | 38.12631 | 15.54207 | 4980 ft | 238 kts | 194° |
| 2026-04-25 15:41 | 38.11111 | 15.53595 | 4805 ft | 227 kts | 202° |
| 2026-04-25 15:41 | 38.09571 | 15.52838 | 4010 ft | 245 kts | 205° |
| 2026-04-25 15:41 | 38.08186 | 15.51556 | 3254 ft | 254 kts | 237° |
| 2026-04-25 15:42 | 38.07511 | 15.49511 | 2881 ft | 242 kts | 248° |
| 2026-04-25 15:42 | 38.06690 | 15.47858 | 3205 ft | 205 kts | 226° |
| 2026-04-25 15:42 | 38.05482 | 15.47090 | 3116 ft | 194 kts | 189° |
| 2026-04-25 15:42 | 38.04185 | 15.47282 | 2884 ft | 194 kts | 146° |
| 2026-04-25 15:43 | 38.03429 | 15.48625 | 2711 ft | 191 kts | 99° |
| 2026-04-25 15:43 | 38.02987 | 15.50226 | 2475 ft | 199 kts | 130° |
| 2026-04-25 15:43 | 38.01902 | 15.51295 | 2314 ft | 196 kts | 137° |
| 2026-04-25 15:43 | 38.01238 | 15.52741 | 2098 ft | 190 kts | 105° |
| 2026-04-25 15:44 | 38.00733 | 15.54298 | 1919 ft | 191 kts | 115° |
| 2026-04-25 15:44 | 38.00138 | 15.55803 | 1764 ft | 190 kts | 111° |
| 2026-04-25 15:44 | 38.00013 | 15.57396 | 1717 ft | 181 kts | 72° |
| 2026-04-25 15:44 | 38.00390 | 15.58931 | 1754 ft | 184 kts | 71° |
| 2026-04-25 15:45 | 38.00776 | 15.60493 | 1766 ft | 186 kts | 70° |
| 2026-04-25 15:45 | 38.01159 | 15.62034 | 1755 ft | 176 kts | 70° |
| 2026-04-25 15:45 | 38.01500 | 15.63421 | 1715 ft | 160 kts | 70° |
| 2026-04-25 15:45 | 38.01614 | 15.63881 | 1739 ft | 163 kts | 69° |
| 2026-04-25 15:46 | 38.02381 | 15.65931 | 2137 ft | 145 kts | 40° |
| 2026-04-25 15:46 | 38.03299 | 15.66536 | 2126 ft | 157 kts | 7° |
| 2026-04-25 15:46 | 38.04447 | 15.66488 | 2580 ft | 177 kts | 348° |
| 2026-04-25 15:46 | 38.05707 | 15.66116 | 3002 ft | 195 kts | 342° |
| 2026-04-25 15:47 | 38.07037 | 15.65567 | 2991 ft | 206 kts | 341° |
| 2026-04-25 15:47 | 38.08400 | 15.64977 | 2995 ft | 205 kts | 343° |
| 2026-04-25 15:47 | 38.09776 | 15.64424 | 2986 ft | 211 kts | 343° |
| 2026-04-25 15:47 | 38.11191 | 15.63865 | 2981 ft | 222 kts | 343° |
| 2026-04-25 15:48 | 38.12687 | 15.63301 | 2984 ft | 226 kts | 343° |
| 2026-04-25 15:48 | 38.14185 | 15.62723 | 2976 ft | 223 kts | 338° |
| 2026-04-25 15:48 | 38.15362 | 15.61513 | 2992 ft | 221 kts | 298° |
| 2026-04-25 15:48 | 38.15583 | 15.59617 | 3005 ft | 224 kts | 258° |
| 2026-04-25 15:49 | 38.14735 | 15.57959 | 3020 ft | 232 kts | 220° |
| 2026-04-25 15:49 | 38.13441 | 15.56707 | 2993 ft | 233 kts | 216° |
| 2026-04-25 15:49 | 38.12033 | 15.55756 | 2996 ft | 230 kts | 207° |
| 2026-04-25 15:49 | 38.10568 | 15.54828 | 2938 ft | 239 kts | 208° |
| 2026-04-25 15:50 | 38.09096 | 15.53853 | 2899 ft | 237 kts | 209° |
| 2026-04-25 15:50 | 38.07658 | 15.52876 | 2896 ft | 233 kts | 210° |
| 2026-04-25 15:50 | 38.06221 | 15.51891 | 2908 ft | 234 kts | 210° |
| 2026-04-25 15:50 | 38.04742 | 15.51026 | 2876 ft | 231 kts | 192° |
| 2026-04-25 15:51 | 38.03234 | 15.51185 | 2886 ft | 210 kts | 156° |
| 2026-04-25 15:51 | 38.02815 | 15.51451 | 2893 ft | 205 kts | 148° |
| 2026-04-25 15:51 | 38.01288 | 15.53608 | 2905 ft | 201 kts | 117° |
| 2026-04-25 15:51 | 38.00593 | 15.55173 | 2913 ft | 205 kts | 118° |
| 2026-04-25 15:52 | 38.00033 | 15.56810 | 2881 ft | 196 kts | 93° |
| 2026-04-25 15:52 | 38.00273 | 15.58420 | 2872 ft | 186 kts | 70° |
| 2026-04-25 15:52 | 38.00657 | 15.59976 | 2665 ft | 185 kts | 71° |
| 2026-04-25 15:52 | 38.01038 | 15.61521 | 2358 ft | 180 kts | 70° |
| 2026-04-25 15:53 | 38.01401 | 15.62997 | 2063 ft | 171 kts | 69° |
| 2026-04-25 15:53 | 38.01742 | 15.64386 | 1848 ft | 160 kts | 70° |
| 2026-04-25 15:53 | 38.02213 | 15.65641 | 1535 ft | 154 kts | 47° |
| 2026-04-25 15:53 | 38.03057 | 15.66381 | 1293 ft | 149 kts | 18° |
| 2026-04-25 15:54 | 38.04087 | 15.66627 | 942 ft | 150 kts | 355° |
| 2026-04-25 15:54 | 38.05087 | 15.66367 | 544 ft | 146 kts | 343° |
| 2026-04-25 15:54 | 38.05967 | 15.65890 | 283 ft | 132 kts | 335° |
| 2026-04-25 15:54 | 38.06753 | 15.65388 | 46 ft | 120 kts | 336° |
| 2026-04-25 15:55 | 38.07357 | 15.65005 | 50 ft | 66 kts | 332° |
| 2026-04-25 15:55 | 38.07553 | 15.64890 | 57 ft | 11 kts | 358° |
| 2026-04-25 15:55 | 38.07572 | 15.64874 | 54 ft | 3 kts | 268° |
| 2026-04-25 15:55 | 38.07539 | 15.64885 | 52 ft | 11 kts | 152° |
| 2026-04-25 15:56 | 38.07446 | 15.64948 | 53 ft | 18 kts | 152° |
| 2026-04-25 15:56 | 38.07331 | 15.65022 | 49 ft | 18 kts | 153° |
| 2026-04-25 15:56 | 38.07289 | 15.65095 | 47 ft | 10 kts | 76° |
| 2026-04-25 15:56 | 38.07319 | 15.65174 | 48 ft | 9 kts | 63° |
| 2026-04-25 15:57 | 38.07335 | 15.65233 | 46 ft | 6 kts | 104° |
| 2026-04-25 15:57 | 38.07303 | 15.65272 | 48 ft | 6 kts | 133° |
| 2026-04-25 15:57 | 38.07307 | 15.65304 | 48 ft | 3 kts | 61° |
| 2026-04-25 15:57 | 38.07315 | 15.65328 | 48 ft | 1 kts | 89° |
| 2026-04-25 15:58 | 38.07310 | 15.65336 | 48 ft | 1 kts | 120° |
| 2026-04-25 15:58 | 38.07309 | 15.65338 | 48 ft | 0 kts | 120° |